sensor_id;sensor_type;location;lat;lon;timestamp;temperature;humidity
1570;DHT22;778;50.120;8.698;2023-03-12T00:01:15;1.90;99.90
1570;DHT22;778;50.120;8.698;2023-03-12T00:03:45;1.90;99.90
1570;DHT22;778;50.120;8.698;2023-03-12T00:06:16;1.90;99.90
1570;DHT22;778;50.120;8.698;2023-03-12T00:08:45;1.80;99.90
1570;DHT22;778;50.120;8.698;2023-03-12T00:11:16;1.70;99.90
1570;DHT22;778;50.120;8.698;2023-03-12T00:13:48;1.60;99.90
1570;DHT22;778;50.120;8.698;2023-03-12T00:16:17;1.60;99.90
1570;DHT22;778;50.120;8.698;2023-03-12T00:18:47;1.50;99.90
1570;DHT22;778;50.120;8.698;2023-03-12T00:21:19;1.40;99.90
1570;DHT22;778;50.120;8.698;2023-03-12T00:23:48;1.50;99.90
1570;DHT22;778;50.120;8.698;2023-03-12T00:26:18;1.40;99.90
1570;DHT22;778;50.120;8.698;2023-03-12T00:28:48;1.40;99.90
1570;DHT22;778;50.120;8.698;2023-03-12T00:31:19;1.30;99.90
1570;DHT22;778;50.120;8.698;2023-03-12T00:33:49;1.30;99.90
1570;DHT22;778;50.120;8.698;2023-03-12T00:36:21;1.30;99.90
1570;DHT22;778;50.120;8.698;2023-03-12T00:38:51;1.30;99.90
1570;DHT22;778;50.120;8.698;2023-03-12T00:41:20;1.30;99.90
1570;DHT22;778;50.120;8.698;2023-03-12T00:43:50;1.30;99.90
1570;DHT22;778;50.120;8.698;2023-03-12T00:46:20;1.30;99.90
1570;DHT22;778;50.120;8.698;2023-03-12T00:48:49;1.40;99.90
1570;DHT22;778;50.120;8.698;2023-03-12T00:51:19;1.40;99.90
1570;DHT22;778;50.120;8.698;2023-03-12T00:53:48;1.40;99.90
1570;DHT22;778;50.120;8.698;2023-03-12T00:56:16;1.40;99.90
1570;DHT22;778;50.120;8.698;2023-03-12T00:58:45;1.40;99.90
1570;DHT22;778;50.120;8.698;2023-03-12T01:01:13;1.50;99.90
1570;DHT22;778;50.120;8.698;2023-03-12T01:03:43;1.40;99.90
1570;DHT22;778;50.120;8.698;2023-03-12T01:06:12;1.40;99.90
1570;DHT22;778;50.120;8.698;2023-03-12T01:08:42;1.40;99.90
1570;DHT22;778;50.120;8.698;2023-03-12T01:11:12;1.40;99.90
1570;DHT22;778;50.120;8.698;2023-03-12T01:13:42;1.40;99.90
1570;DHT22;778;50.120;8.698;2023-03-12T01:16:11;1.40;99.90
1570;DHT22;778;50.120;8.698;2023-03-12T01:18:40;1.40;99.90
1570;DHT22;778;50.120;8.698;2023-03-12T01:21:08;1.40;99.90
1570;DHT22;778;50.120;8.698;2023-03-12T01:23:37;1.40;99.90
1570;DHT22;778;50.120;8.698;2023-03-12T01:26:07;1.30;99.90
1570;DHT22;778;50.120;8.698;2023-03-12T01:28:36;1.20;99.90
1570;DHT22;778;50.120;8.698;2023-03-12T01:31:07;1.20;99.90
1570;DHT22;778;50.120;8.698;2023-03-12T01:33:36;1.10;99.90
1570;DHT22;778;50.120;8.698;2023-03-12T01:36:11;1.10;99.90
1570;DHT22;778;50.120;8.698;2023-03-12T01:38:43;1.10;99.90
1570;DHT22;778;50.120;8.698;2023-03-12T01:41:13;1.00;99.90
1570;DHT22;778;50.120;8.698;2023-03-12T01:43:41;1.00;99.90
1570;DHT22;778;50.120;8.698;2023-03-12T01:46:23;1.00;99.90
1570;DHT22;778;50.120;8.698;2023-03-12T01:48:58;1.10;99.90
1570;DHT22;778;50.120;8.698;2023-03-12T01:51:32;1.00;99.90
1570;DHT22;778;50.120;8.698;2023-03-12T01:54:07;1.10;99.90
1570;DHT22;778;50.120;8.698;2023-03-12T01:56:39;1.00;99.90
1570;DHT22;778;50.120;8.698;2023-03-12T01:59:13;1.10;99.90
1570;DHT22;778;50.120;8.698;2023-03-12T02:01:43;1.00;99.90
1570;DHT22;778;50.120;8.698;2023-03-12T02:04:13;1.10;99.90
1570;DHT22;778;50.120;8.698;2023-03-12T02:06:47;1.00;99.90
1570;DHT22;778;50.120;8.698;2023-03-12T02:09:17;1.00;99.90
1570;DHT22;778;50.120;8.698;2023-03-12T02:11:49;0.90;99.90
1570;DHT22;778;50.120;8.698;2023-03-12T02:14:19;1.10;99.90
1570;DHT22;778;50.120;8.698;2023-03-12T02:16:47;1.10;99.90
1570;DHT22;778;50.120;8.698;2023-03-12T02:19:21;1.00;99.90
1570;DHT22;778;50.120;8.698;2023-03-12T02:21:57;1.00;99.90
1570;DHT22;778;50.120;8.698;2023-03-12T02:24:31;1.00;99.90
1570;DHT22;778;50.120;8.698;2023-03-12T02:27:03;1.00;99.90
1570;DHT22;778;50.120;8.698;2023-03-12T02:29:35;1.00;99.90
1570;DHT22;778;50.120;8.698;2023-03-12T02:32:09;1.00;99.90
1570;DHT22;778;50.120;8.698;2023-03-12T02:34:43;1.00;99.90
1570;DHT22;778;50.120;8.698;2023-03-12T02:37:14;0.90;99.90
1570;DHT22;778;50.120;8.698;2023-03-12T02:39:45;0.90;99.90
1570;DHT22;778;50.120;8.698;2023-03-12T02:42:19;1.00;99.90
1570;DHT22;778;50.120;8.698;2023-03-12T02:44:48;1.00;99.90
1570;DHT22;778;50.120;8.698;2023-03-12T02:47:16;1.00;99.90
1570;DHT22;778;50.120;8.698;2023-03-12T02:49:45;1.00;99.90
1570;DHT22;778;50.120;8.698;2023-03-12T02:52:13;1.10;99.90
1570;DHT22;778;50.120;8.698;2023-03-12T02:54:42;1.10;99.90
1570;DHT22;778;50.120;8.698;2023-03-12T02:57:11;1.00;99.90
1570;DHT22;778;50.120;8.698;2023-03-12T02:59:41;1.00;99.90
1570;DHT22;778;50.120;8.698;2023-03-12T03:02:09;1.10;99.90
1570;DHT22;778;50.120;8.698;2023-03-12T03:04:39;1.00;99.90
1570;DHT22;778;50.120;8.698;2023-03-12T03:07:07;0.90;99.90
1570;DHT22;778;50.120;8.698;2023-03-12T03:09:36;0.90;99.90
1570;DHT22;778;50.120;8.698;2023-03-12T03:12:04;0.90;99.90
1570;DHT22;778;50.120;8.698;2023-03-12T03:14:34;0.90;99.90
1570;DHT22;778;50.120;8.698;2023-03-12T03:17:05;0.80;99.90
1570;DHT22;778;50.120;8.698;2023-03-12T03:19:33;0.80;99.90
1570;DHT22;778;50.120;8.698;2023-03-12T03:22:02;0.80;99.90
1570;DHT22;778;50.120;8.698;2023-03-12T03:24:31;0.70;99.90
1570;DHT22;778;50.120;8.698;2023-03-12T03:26:59;0.70;99.90
1570;DHT22;778;50.120;8.698;2023-03-12T03:29:28;0.70;99.90
1570;DHT22;778;50.120;8.698;2023-03-12T03:31:58;0.80;99.90
1570;DHT22;778;50.120;8.698;2023-03-12T03:34:27;0.80;99.90
1570;DHT22;778;50.120;8.698;2023-03-12T03:36:56;0.90;99.90
1570;DHT22;778;50.120;8.698;2023-03-12T03:39:25;0.90;99.90
1570;DHT22;778;50.120;8.698;2023-03-12T03:41:55;1.00;99.90
1570;DHT22;778;50.120;8.698;2023-03-12T03:44:25;1.10;99.90
1570;DHT22;778;50.120;8.698;2023-03-12T03:46:54;1.00;99.90
1570;DHT22;778;50.120;8.698;2023-03-12T03:49:22;1.00;99.90
1570;DHT22;778;50.120;8.698;2023-03-12T03:51:52;1.00;99.90
1570;DHT22;778;50.120;8.698;2023-03-12T03:54:30;1.00;99.90
1570;DHT22;778;50.120;8.698;2023-03-12T03:57:00;0.90;99.90
1570;DHT22;778;50.120;8.698;2023-03-12T03:59:28;1.00;99.90
1570;DHT22;778;50.120;8.698;2023-03-12T04:01:57;1.00;99.90
1570;DHT22;778;50.120;8.698;2023-03-12T04:04:25;1.00;99.90
1570;DHT22;778;50.120;8.698;2023-03-12T04:06:56;1.10;99.90
1570;DHT22;778;50.120;8.698;2023-03-12T04:09:24;1.10;99.90
1570;DHT22;778;50.120;8.698;2023-03-12T04:11:53;1.00;99.90
1570;DHT22;778;50.120;8.698;2023-03-12T04:14:21;1.00;99.90
1570;DHT22;778;50.120;8.698;2023-03-12T04:16:50;1.10;99.90
1570;DHT22;778;50.120;8.698;2023-03-12T04:19:18;1.10;99.90
1570;DHT22;778;50.120;8.698;2023-03-12T04:21:47;1.00;99.90
1570;DHT22;778;50.120;8.698;2023-03-12T04:24:17;1.00;99.90
1570;DHT22;778;50.120;8.698;2023-03-12T04:26:47;1.10;99.90
1570;DHT22;778;50.120;8.698;2023-03-12T04:29:17;1.10;99.90
1570;DHT22;778;50.120;8.698;2023-03-12T04:31:46;1.10;99.90
1570;DHT22;778;50.120;8.698;2023-03-12T04:34:14;1.20;99.90
1570;DHT22;778;50.120;8.698;2023-03-12T04:36:45;1.30;99.90
1570;DHT22;778;50.120;8.698;2023-03-12T04:39:17;1.20;99.90
1570;DHT22;778;50.120;8.698;2023-03-12T04:41:49;1.20;99.90
1570;DHT22;778;50.120;8.698;2023-03-12T04:44:17;1.20;99.90
1570;DHT22;778;50.120;8.698;2023-03-12T04:46:46;1.30;99.90
1570;DHT22;778;50.120;8.698;2023-03-12T04:49:18;1.50;99.90
1570;DHT22;778;50.120;8.698;2023-03-12T04:51:46;1.40;99.90
1570;DHT22;778;50.120;8.698;2023-03-12T04:54:16;1.30;99.90
1570;DHT22;778;50.120;8.698;2023-03-12T04:56:47;1.10;99.90
1570;DHT22;778;50.120;8.698;2023-03-12T04:59:18;1.00;99.90
1570;DHT22;778;50.120;8.698;2023-03-12T05:01:47;0.90;99.90
1570;DHT22;778;50.120;8.698;2023-03-12T05:04:20;1.00;99.90
1570;DHT22;778;50.120;8.698;2023-03-12T05:06:49;1.00;99.90
1570;DHT22;778;50.120;8.698;2023-03-12T05:09:19;1.10;99.90
1570;DHT22;778;50.120;8.698;2023-03-12T05:11:47;1.10;99.90
1570;DHT22;778;50.120;8.698;2023-03-12T05:14:18;1.00;99.90
1570;DHT22;778;50.120;8.698;2023-03-12T05:16:47;1.00;99.90
1570;DHT22;778;50.120;8.698;2023-03-12T05:19:16;0.90;99.90
1570;DHT22;778;50.120;8.698;2023-03-12T05:21:44;0.90;99.90
1570;DHT22;778;50.120;8.698;2023-03-12T05:24:14;0.90;99.90
1570;DHT22;778;50.120;8.698;2023-03-12T05:26:44;1.00;99.90
1570;DHT22;778;50.120;8.698;2023-03-12T05:29:19;1.00;99.90
1570;DHT22;778;50.120;8.698;2023-03-12T05:31:47;0.90;99.90
1570;DHT22;778;50.120;8.698;2023-03-12T05:34:16;0.90;99.90
1570;DHT22;778;50.120;8.698;2023-03-12T05:36:45;0.90;99.90
1570;DHT22;778;50.120;8.698;2023-03-12T05:39:19;1.00;99.90
1570;DHT22;778;50.120;8.698;2023-03-12T05:41:49;1.00;99.90
1570;DHT22;778;50.120;8.698;2023-03-12T05:44:21;1.00;99.90
1570;DHT22;778;50.120;8.698;2023-03-12T05:46:53;1.10;99.90
1570;DHT22;778;50.120;8.698;2023-03-12T05:49:25;1.10;99.90
1570;DHT22;778;50.120;8.698;2023-03-12T05:51:55;1.10;99.90
1570;DHT22;778;50.120;8.698;2023-03-12T05:54:24;1.10;99.90
1570;DHT22;778;50.120;8.698;2023-03-12T05:56:54;1.20;99.90
1570;DHT22;778;50.120;8.698;2023-03-12T05:59:24;1.20;99.90
1570;DHT22;778;50.120;8.698;2023-03-12T06:01:54;1.30;99.90
1570;DHT22;778;50.120;8.698;2023-03-12T06:04:23;1.40;99.90
1570;DHT22;778;50.120;8.698;2023-03-12T06:06:52;1.50;99.90
1570;DHT22;778;50.120;8.698;2023-03-12T06:09:21;1.40;99.90
1570;DHT22;778;50.120;8.698;2023-03-12T06:11:51;1.50;99.90
1570;DHT22;778;50.120;8.698;2023-03-12T06:14:21;1.50;99.90
1570;DHT22;778;50.120;8.698;2023-03-12T06:16:50;1.40;99.90
1570;DHT22;778;50.120;8.698;2023-03-12T06:19:18;1.50;99.90
1570;DHT22;778;50.120;8.698;2023-03-12T06:21:48;1.40;99.90
1570;DHT22;778;50.120;8.698;2023-03-12T06:24:17;1.40;99.90
1570;DHT22;778;50.120;8.698;2023-03-12T06:26:53;1.50;99.90
1570;DHT22;778;50.120;8.698;2023-03-12T06:29:23;1.60;99.90
1570;DHT22;778;50.120;8.698;2023-03-12T06:31:52;1.60;99.90
1570;DHT22;778;50.120;8.698;2023-03-12T06:34:21;1.60;99.90
1570;DHT22;778;50.120;8.698;2023-03-12T06:36:50;1.60;99.90
1570;DHT22;778;50.120;8.698;2023-03-12T06:39:18;1.70;99.90
1570;DHT22;778;50.120;8.698;2023-03-12T06:41:47;1.70;99.90
1570;DHT22;778;50.120;8.698;2023-03-12T06:44:15;1.70;99.90
1570;DHT22;778;50.120;8.698;2023-03-12T06:46:45;1.60;99.90
1570;DHT22;778;50.120;8.698;2023-03-12T06:49:14;1.70;99.90
1570;DHT22;778;50.120;8.698;2023-03-12T06:51:43;1.70;99.90
1570;DHT22;778;50.120;8.698;2023-03-12T06:54:14;1.70;99.90
1570;DHT22;778;50.120;8.698;2023-03-12T06:56:42;1.70;99.90
1570;DHT22;778;50.120;8.698;2023-03-12T06:59:11;1.70;99.90
1570;DHT22;778;50.120;8.698;2023-03-12T07:01:40;1.70;99.90
1570;DHT22;778;50.120;8.698;2023-03-12T07:04:10;1.80;99.90
1570;DHT22;778;50.120;8.698;2023-03-12T07:06:38;1.90;99.90
1570;DHT22;778;50.120;8.698;2023-03-12T07:09:07;2.00;99.90
1570;DHT22;778;50.120;8.698;2023-03-12T07:11:36;2.10;99.90
1570;DHT22;778;50.120;8.698;2023-03-12T07:14:04;2.10;99.90
1570;DHT22;778;50.120;8.698;2023-03-12T07:16:33;2.20;99.90
1570;DHT22;778;50.120;8.698;2023-03-12T07:19:02;2.30;99.90
1570;DHT22;778;50.120;8.698;2023-03-12T07:21:32;2.40;99.90
1570;DHT22;778;50.120;8.698;2023-03-12T07:24:00;2.60;99.90
1570;DHT22;778;50.120;8.698;2023-03-12T07:26:33;2.70;99.90
1570;DHT22;778;50.120;8.698;2023-03-12T07:29:02;2.60;99.90
1570;DHT22;778;50.120;8.698;2023-03-12T07:31:31;2.70;99.90
1570;DHT22;778;50.120;8.698;2023-03-12T07:33:59;2.70;99.90
1570;DHT22;778;50.120;8.698;2023-03-12T07:36:29;2.70;99.90
1570;DHT22;778;50.120;8.698;2023-03-12T07:38:59;2.80;99.90
1570;DHT22;778;50.120;8.698;2023-03-12T07:41:28;2.80;99.90
1570;DHT22;778;50.120;8.698;2023-03-12T07:43:57;2.80;99.90
1570;DHT22;778;50.120;8.698;2023-03-12T07:46:26;2.80;99.90
1570;DHT22;778;50.120;8.698;2023-03-12T07:48:54;2.90;99.90
1570;DHT22;778;50.120;8.698;2023-03-12T07:51:23;3.00;99.90
1570;DHT22;778;50.120;8.698;2023-03-12T07:53:51;3.10;99.90
1570;DHT22;778;50.120;8.698;2023-03-12T07:56:22;3.10;99.90
1570;DHT22;778;50.120;8.698;2023-03-12T07:58:50;3.10;99.90
1570;DHT22;778;50.120;8.698;2023-03-12T08:01:20;3.10;99.90
1570;DHT22;778;50.120;8.698;2023-03-12T08:03:48;3.00;99.90
1570;DHT22;778;50.120;8.698;2023-03-12T08:06:17;3.00;99.90
1570;DHT22;778;50.120;8.698;2023-03-12T08:08:47;3.00;99.90
1570;DHT22;778;50.120;8.698;2023-03-12T08:11:15;2.90;99.90
1570;DHT22;778;50.120;8.698;2023-03-12T08:13:45;2.90;99.90
1570;DHT22;778;50.120;8.698;2023-03-12T08:16:14;2.90;99.90
1570;DHT22;778;50.120;8.698;2023-03-12T08:18:44;2.90;99.90
1570;DHT22;778;50.120;8.698;2023-03-12T08:21:13;2.90;99.90
1570;DHT22;778;50.120;8.698;2023-03-12T08:23:42;2.90;99.90
1570;DHT22;778;50.120;8.698;2023-03-12T08:26:11;2.90;99.90
1570;DHT22;778;50.120;8.698;2023-03-12T08:28:40;2.80;99.90
1570;DHT22;778;50.120;8.698;2023-03-12T08:31:28;2.80;99.90
1570;DHT22;778;50.120;8.698;2023-03-12T08:34:34;2.80;99.90
1570;DHT22;778;50.120;8.698;2023-03-12T08:37:04;2.90;99.90
1570;DHT22;778;50.120;8.698;2023-03-12T08:39:36;2.90;99.90
1570;DHT22;778;50.120;8.698;2023-03-12T08:42:05;2.90;99.90
1570;DHT22;778;50.120;8.698;2023-03-12T08:44:34;2.90;99.90
1570;DHT22;778;50.120;8.698;2023-03-12T08:47:04;2.90;99.90
1570;DHT22;778;50.120;8.698;2023-03-12T08:49:34;2.90;99.90
1570;DHT22;778;50.120;8.698;2023-03-12T08:52:03;2.90;99.90
1570;DHT22;778;50.120;8.698;2023-03-12T08:54:32;2.90;99.90
1570;DHT22;778;50.120;8.698;2023-03-12T08:57:01;3.00;99.90
1570;DHT22;778;50.120;8.698;2023-03-12T08:59:29;2.90;99.90
1570;DHT22;778;50.120;8.698;2023-03-12T09:01:58;2.90;99.90
1570;DHT22;778;50.120;8.698;2023-03-12T09:04:28;2.90;99.90
1570;DHT22;778;50.120;8.698;2023-03-12T09:06:59;2.80;99.90
1570;DHT22;778;50.120;8.698;2023-03-12T09:09:27;2.90;99.90
1570;DHT22;778;50.120;8.698;2023-03-12T09:11:56;2.90;99.90
1570;DHT22;778;50.120;8.698;2023-03-12T09:14:25;3.00;99.90
1570;DHT22;778;50.120;8.698;2023-03-12T09:17:13;3.00;99.90
1570;DHT22;778;50.120;8.698;2023-03-12T09:19:43;3.00;99.90
1570;DHT22;778;50.120;8.698;2023-03-12T09:22:11;3.00;99.90
1570;DHT22;778;50.120;8.698;2023-03-12T09:24:40;3.00;99.90
1570;DHT22;778;50.120;8.698;2023-03-12T09:27:08;3.00;99.90
1570;DHT22;778;50.120;8.698;2023-03-12T09:29:37;3.10;99.90
1570;DHT22;778;50.120;8.698;2023-03-12T09:32:25;3.00;99.90
1570;DHT22;778;50.120;8.698;2023-03-12T09:34:55;3.00;99.90
1570;DHT22;778;50.120;8.698;2023-03-12T09:37:24;3.00;99.90
1570;DHT22;778;50.120;8.698;2023-03-12T09:39:53;2.90;99.90
1570;DHT22;778;50.120;8.698;2023-03-12T09:42:24;2.90;99.90
1570;DHT22;778;50.120;8.698;2023-03-12T09:44:54;3.10;99.90
1570;DHT22;778;50.120;8.698;2023-03-12T09:47:27;3.10;99.90
1570;DHT22;778;50.120;8.698;2023-03-12T09:50:04;3.10;99.90
1570;DHT22;778;50.120;8.698;2023-03-12T09:52:48;3.10;99.90
1570;DHT22;778;50.120;8.698;2023-03-12T09:55:20;3.10;99.90
1570;DHT22;778;50.120;8.698;2023-03-12T09:57:50;3.20;99.90
1570;DHT22;778;50.120;8.698;2023-03-12T10:00:21;3.20;99.90
1570;DHT22;778;50.120;8.698;2023-03-12T10:03:06;3.20;99.90
1570;DHT22;778;50.120;8.698;2023-03-12T10:05:43;3.30;99.90
1570;DHT22;778;50.120;8.698;2023-03-12T10:08:19;3.20;99.90
1570;DHT22;778;50.120;8.698;2023-03-12T10:11:02;3.20;99.90
1570;DHT22;778;50.120;8.698;2023-03-12T10:13:50;3.40;99.90
1570;DHT22;778;50.120;8.698;2023-03-12T10:16:37;3.40;99.90
1570;DHT22;778;50.120;8.698;2023-03-12T10:19:28;3.40;99.90
1570;DHT22;778;50.120;8.698;2023-03-12T10:22:14;3.50;99.90
1570;DHT22;778;50.120;8.698;2023-03-12T10:24:55;3.50;99.90
1570;DHT22;778;50.120;8.698;2023-03-12T10:27:29;3.40;99.90
1570;DHT22;778;50.120;8.698;2023-03-12T10:30:02;3.50;99.90
1570;DHT22;778;50.120;8.698;2023-03-12T10:32:38;3.40;99.90
1570;DHT22;778;50.120;8.698;2023-03-12T10:35:14;3.50;99.90
1570;DHT22;778;50.120;8.698;2023-03-12T10:37:50;3.60;99.90
1570;DHT22;778;50.120;8.698;2023-03-12T10:40:21;3.70;99.90
1570;DHT22;778;50.120;8.698;2023-03-12T10:42:52;3.70;99.90
1570;DHT22;778;50.120;8.698;2023-03-12T10:45:26;3.70;99.90
1570;DHT22;778;50.120;8.698;2023-03-12T10:48:01;3.70;99.90
1570;DHT22;778;50.120;8.698;2023-03-12T10:50:33;3.90;99.90
1570;DHT22;778;50.120;8.698;2023-03-12T10:53:19;3.90;99.90
1570;DHT22;778;50.120;8.698;2023-03-12T10:56:00;3.90;99.90
1570;DHT22;778;50.120;8.698;2023-03-12T10:58:33;3.90;99.90
1570;DHT22;778;50.120;8.698;2023-03-12T11:01:06;4.00;99.90
1570;DHT22;778;50.120;8.698;2023-03-12T11:03:47;4.10;99.90
1570;DHT22;778;50.120;8.698;2023-03-12T11:06:21;4.10;99.90
1570;DHT22;778;50.120;8.698;2023-03-12T11:09:13;4.20;99.90
1570;DHT22;778;50.120;8.698;2023-03-12T11:11:45;4.20;99.90
1570;DHT22;778;50.120;8.698;2023-03-12T11:14:16;4.20;99.90
1570;DHT22;778;50.120;8.698;2023-03-12T11:16:47;4.20;99.90
1570;DHT22;778;50.120;8.698;2023-03-12T11:19:26;4.20;99.90
1570;DHT22;778;50.120;8.698;2023-03-12T11:21:57;4.20;99.90
1570;DHT22;778;50.120;8.698;2023-03-12T11:24:28;4.30;99.90
1570;DHT22;778;50.120;8.698;2023-03-12T11:27:00;4.30;99.90
1570;DHT22;778;50.120;8.698;2023-03-12T11:29:31;4.40;99.90
1570;DHT22;778;50.120;8.698;2023-03-12T11:32:12;4.40;99.90
1570;DHT22;778;50.120;8.698;2023-03-12T11:34:44;4.50;99.90
1570;DHT22;778;50.120;8.698;2023-03-12T11:37:20;4.50;99.90
1570;DHT22;778;50.120;8.698;2023-03-12T11:40:16;4.50;99.90
1570;DHT22;778;50.120;8.698;2023-03-12T11:43:11;4.50;99.90
1570;DHT22;778;50.120;8.698;2023-03-12T11:46:16;4.70;99.90
1570;DHT22;778;50.120;8.698;2023-03-12T11:48:58;4.70;99.90
1570;DHT22;778;50.120;8.698;2023-03-12T11:51:38;4.80;99.90
1570;DHT22;778;50.120;8.698;2023-03-12T11:57:35;4.80;99.90
1570;DHT22;778;50.120;8.698;2023-03-12T12:00:15;5.00;99.90
1570;DHT22;778;50.120;8.698;2023-03-12T12:03:01;5.10;99.90
1570;DHT22;778;50.120;8.698;2023-03-12T12:05:55;5.00;99.90
1570;DHT22;778;50.120;8.698;2023-03-12T12:08:46;5.10;99.90
1570;DHT22;778;50.120;8.698;2023-03-12T12:11:26;5.20;99.90
1570;DHT22;778;50.120;8.698;2023-03-12T12:14:09;5.30;99.90
1570;DHT22;778;50.120;8.698;2023-03-12T12:16:54;5.40;99.90
1570;DHT22;778;50.120;8.698;2023-03-12T12:19:41;5.30;99.90
1570;DHT22;778;50.120;8.698;2023-03-12T12:22:28;5.40;99.90
1570;DHT22;778;50.120;8.698;2023-03-12T12:25:23;5.40;99.90
1570;DHT22;778;50.120;8.698;2023-03-12T12:28:05;5.50;99.90
1570;DHT22;778;50.120;8.698;2023-03-12T12:30:58;5.80;99.90
1570;DHT22;778;50.120;8.698;2023-03-12T12:33:42;5.90;99.90
1570;DHT22;778;50.120;8.698;2023-03-12T12:36:17;6.10;99.90
1570;DHT22;778;50.120;8.698;2023-03-12T12:38:50;6.40;99.90
1570;DHT22;778;50.120;8.698;2023-03-12T12:41:23;6.50;99.90
1570;DHT22;778;50.120;8.698;2023-03-12T12:43:56;6.60;99.90
1570;DHT22;778;50.120;8.698;2023-03-12T12:46:31;6.60;99.90
1570;DHT22;778;50.120;8.698;2023-03-12T12:49:04;6.50;99.90
1570;DHT22;778;50.120;8.698;2023-03-12T12:51:40;6.50;99.90
1570;DHT22;778;50.120;8.698;2023-03-12T12:54:18;6.50;99.90
1570;DHT22;778;50.120;8.698;2023-03-12T12:56:52;6.70;99.90
1570;DHT22;778;50.120;8.698;2023-03-12T12:59:31;6.90;99.90
1570;DHT22;778;50.120;8.698;2023-03-12T13:02:10;7.20;99.90
1570;DHT22;778;50.120;8.698;2023-03-12T13:04:43;7.30;99.90
1570;DHT22;778;50.120;8.698;2023-03-12T13:07:28;7.60;99.90
1570;DHT22;778;50.120;8.698;2023-03-12T13:10:05;7.80;99.90
1570;DHT22;778;50.120;8.698;2023-03-12T13:12:41;7.90;99.90
1570;DHT22;778;50.120;8.698;2023-03-12T13:15:33;7.90;99.90
1570;DHT22;778;50.120;8.698;2023-03-12T13:18:21;7.80;99.90
1570;DHT22;778;50.120;8.698;2023-03-12T13:21:11;7.90;99.90
1570;DHT22;778;50.120;8.698;2023-03-12T13:23:52;7.90;99.90
1570;DHT22;778;50.120;8.698;2023-03-12T13:26:29;7.90;99.90
1570;DHT22;778;50.120;8.698;2023-03-12T13:29:12;8.00;99.90
1570;DHT22;778;50.120;8.698;2023-03-12T13:31:46;8.10;99.90
1570;DHT22;778;50.120;8.698;2023-03-12T13:34:42;8.30;99.90
1570;DHT22;778;50.120;8.698;2023-03-12T13:37:28;8.40;99.90
1570;DHT22;778;50.120;8.698;2023-03-12T13:43:50;8.30;99.90
1570;DHT22;778;50.120;8.698;2023-03-12T13:46:38;8.20;99.90
1570;DHT22;778;50.120;8.698;2023-03-12T13:49:14;8.30;99.90
1570;DHT22;778;50.120;8.698;2023-03-12T13:52:15;8.40;99.90
1570;DHT22;778;50.120;8.698;2023-03-12T13:54:48;8.40;99.90
1570;DHT22;778;50.120;8.698;2023-03-12T13:57:29;8.30;99.90
1570;DHT22;778;50.120;8.698;2023-03-12T14:00:13;8.30;99.90
1570;DHT22;778;50.120;8.698;2023-03-12T14:02:47;8.30;99.90
1570;DHT22;778;50.120;8.698;2023-03-12T14:05:17;8.30;99.90
1570;DHT22;778;50.120;8.698;2023-03-12T14:08:16;8.30;99.90
1570;DHT22;778;50.120;8.698;2023-03-12T14:10:56;8.30;99.90
1570;DHT22;778;50.120;8.698;2023-03-12T14:16:54;8.30;99.90
1570;DHT22;778;50.120;8.698;2023-03-12T14:19:25;8.30;99.90
1570;DHT22;778;50.120;8.698;2023-03-12T14:21:58;8.30;99.90
1570;DHT22;778;50.120;8.698;2023-03-12T14:24:32;8.40;99.90
1570;DHT22;778;50.120;8.698;2023-03-12T14:27:04;8.40;99.90
1570;DHT22;778;50.120;8.698;2023-03-12T14:29:36;8.40;99.90
1570;DHT22;778;50.120;8.698;2023-03-12T14:32:13;8.40;99.90
1570;DHT22;778;50.120;8.698;2023-03-12T14:34:45;8.40;99.90
1570;DHT22;778;50.120;8.698;2023-03-12T14:37:18;8.40;99.90
1570;DHT22;778;50.120;8.698;2023-03-12T14:39:52;8.40;99.90
1570;DHT22;778;50.120;8.698;2023-03-12T14:42:26;8.40;99.90
1570;DHT22;778;50.120;8.698;2023-03-12T14:44:58;8.40;99.90
1570;DHT22;778;50.120;8.698;2023-03-12T14:47:27;8.40;99.90
1570;DHT22;778;50.120;8.698;2023-03-12T14:49:57;8.30;99.90
1570;DHT22;778;50.120;8.698;2023-03-12T14:52:27;8.40;99.90
1570;DHT22;778;50.120;8.698;2023-03-12T14:54:59;8.40;99.90
1570;DHT22;778;50.120;8.698;2023-03-12T14:57:29;8.40;99.90
1570;DHT22;778;50.120;8.698;2023-03-12T14:59:59;8.40;99.90
1570;DHT22;778;50.120;8.698;2023-03-12T15:02:30;8.50;99.90
1570;DHT22;778;50.120;8.698;2023-03-12T15:04:59;8.50;99.90
1570;DHT22;778;50.120;8.698;2023-03-12T15:07:32;8.50;99.90
1570;DHT22;778;50.120;8.698;2023-03-12T15:10:15;8.50;99.90
1570;DHT22;778;50.120;8.698;2023-03-12T15:12:45;8.50;99.90
1570;DHT22;778;50.120;8.698;2023-03-12T15:15:28;8.50;99.90
1570;DHT22;778;50.120;8.698;2023-03-12T15:18:04;8.50;99.90
1570;DHT22;778;50.120;8.698;2023-03-12T15:20:34;8.50;99.90
1570;DHT22;778;50.120;8.698;2023-03-12T15:23:03;8.50;99.90
1570;DHT22;778;50.120;8.698;2023-03-12T15:25:34;8.50;99.90
1570;DHT22;778;50.120;8.698;2023-03-12T15:28:06;8.60;99.90
1570;DHT22;778;50.120;8.698;2023-03-12T15:30:36;8.50;99.90
1570;DHT22;778;50.120;8.698;2023-03-12T15:33:08;8.60;99.90
1570;DHT22;778;50.120;8.698;2023-03-12T15:35:41;8.60;99.90
1570;DHT22;778;50.120;8.698;2023-03-12T15:38:14;8.60;99.90
1570;DHT22;778;50.120;8.698;2023-03-12T15:40:49;8.60;99.90
1570;DHT22;778;50.120;8.698;2023-03-12T15:43:21;8.60;99.90
1570;DHT22;778;50.120;8.698;2023-03-12T15:45:56;8.70;99.90
1570;DHT22;778;50.120;8.698;2023-03-12T15:48:29;8.70;99.90
1570;DHT22;778;50.120;8.698;2023-03-12T15:50:59;8.70;99.90
1570;DHT22;778;50.120;8.698;2023-03-12T15:53:29;8.70;99.90
1570;DHT22;778;50.120;8.698;2023-03-12T15:56:03;8.70;99.90
1570;DHT22;778;50.120;8.698;2023-03-12T15:58:35;8.70;99.90
1570;DHT22;778;50.120;8.698;2023-03-12T16:01:07;8.70;99.90
1570;DHT22;778;50.120;8.698;2023-03-12T16:03:37;8.70;99.90
1570;DHT22;778;50.120;8.698;2023-03-12T16:06:10;8.60;99.90
1570;DHT22;778;50.120;8.698;2023-03-12T16:08:43;8.60;99.90
1570;DHT22;778;50.120;8.698;2023-03-12T16:11:17;8.60;99.90
1570;DHT22;778;50.120;8.698;2023-03-12T16:13:48;8.60;99.90
1570;DHT22;778;50.120;8.698;2023-03-12T16:16:18;8.60;99.90
1570;DHT22;778;50.120;8.698;2023-03-12T16:18:46;8.60;99.90
1570;DHT22;778;50.120;8.698;2023-03-12T16:21:15;8.70;99.90
1570;DHT22;778;50.120;8.698;2023-03-12T16:23:43;8.70;99.90
1570;DHT22;778;50.120;8.698;2023-03-12T16:26:12;8.70;99.90
1570;DHT22;778;50.120;8.698;2023-03-12T16:28:42;8.70;99.90
1570;DHT22;778;50.120;8.698;2023-03-12T16:31:12;8.70;99.90
1570;DHT22;778;50.120;8.698;2023-03-12T16:33:41;8.60;99.90
1570;DHT22;778;50.120;8.698;2023-03-12T16:36:12;8.60;99.90
1570;DHT22;778;50.120;8.698;2023-03-12T16:38:43;8.60;99.90
1570;DHT22;778;50.120;8.698;2023-03-12T16:41:15;8.60;99.90
1570;DHT22;778;50.120;8.698;2023-03-12T16:43:47;8.60;99.90
1570;DHT22;778;50.120;8.698;2023-03-12T16:46:18;8.50;99.90
1570;DHT22;778;50.120;8.698;2023-03-12T16:48:50;8.50;99.90
1570;DHT22;778;50.120;8.698;2023-03-12T16:51:20;8.50;99.90
1570;DHT22;778;50.120;8.698;2023-03-12T16:53:49;8.50;99.90
1570;DHT22;778;50.120;8.698;2023-03-12T16:56:36;8.50;99.90
1570;DHT22;778;50.120;8.698;2023-03-12T16:59:11;8.50;99.90
1570;DHT22;778;50.120;8.698;2023-03-12T17:01:43;8.50;99.90
1570;DHT22;778;50.120;8.698;2023-03-12T17:04:12;8.50;99.90
1570;DHT22;778;50.120;8.698;2023-03-12T17:06:40;8.50;99.90
1570;DHT22;778;50.120;8.698;2023-03-12T17:09:09;8.50;99.90
1570;DHT22;778;50.120;8.698;2023-03-12T17:11:38;8.40;99.90
1570;DHT22;778;50.120;8.698;2023-03-12T17:14:15;8.40;99.90
1570;DHT22;778;50.120;8.698;2023-03-12T17:16:45;8.50;99.90
1570;DHT22;778;50.120;8.698;2023-03-12T17:19:13;8.50;99.90
1570;DHT22;778;50.120;8.698;2023-03-12T17:21:43;8.40;99.90